Time;durP1;ratioP1;P1;durP2;ratioP2;P2;SDS_P1;SDS_P2;PMS_P1;PMS_P2;Temp;Humidity;BMP_temperature;BMP_pressure;BME280_temperature;BME280_humidity;BME280_pressure;Samples;Min_cycle;Max_cycle;Signal;HPM_P1;HPM_P2
2023/10/17 00:02:27;;;;;;;1156.05;983.10;;;27.00;99.90;;;;;;5093251;28;20488;-69
2023/10/17 00:04:53;;;;;;;1149.22;985.10;;;27.00;99.90;;;;;;5092949;28;20430;-71
2023/10/17 00:07:20;;;;;;;1132.18;967.20;;;27.10;99.90;;;;;;5087909;28;20081;-69
2023/10/17 00:09:50;;;;;;;1113.53;951.47;;;27.10;99.90;;;;;;5074636;28;20024;-68
2023/10/17 00:14:58;;;;;;;1158.82;999.90;;;27.20;99.90;;;;;;5073151;28;20521;-66
2023/10/17 00:17:24;;;;;;;1150.95;999.90;;;27.30;99.90;;;;;;5072884;28;20044;-66
2023/10/17 00:19:51;;;;;;;1108.15;986.45;;;27.40;99.90;;;;;;5073182;28;20049;-66
2023/10/17 00:22:18;;;;;;;1139.90;999.90;;;27.50;99.90;;;;;;5073312;28;20382;-67
2023/10/17 00:24:47;;;;;;;1019.67;911.67;;;27.60;99.90;;;;;;5072759;28;20025;-67
2023/10/17 00:27:14;;;;;;;1032.35;922.90;;;27.70;99.90;;;;;;5073307;28;20033;-67
2023/10/17 00:29:41;;;;;;;1088.10;973.42;;;27.80;99.90;;;;;;5078619;28;20028;-68
2023/10/17 00:32:12;;;;;;;1067.03;955.85;;;27.90;99.90;;;;;;5097133;28;20048;-68
2023/10/17 00:34:40;;;;;;;1062.88;952.28;;;28.10;99.90;;;;;;5097440;28;20012;-67
2023/10/17 00:37:19;;;;;;;1063.07;951.75;;;28.10;99.90;;;;;;5067365;28;20115;-67
2023/10/17 00:39:47;;;;;;;1036.70;927.40;;;28.20;99.90;;;;;;5074052;28;20474;-67
2023/10/17 00:42:34;;;;;;;1045.85;934.10;;;28.30;99.90;;;;;;5068200;28;20505;-65
2023/10/17 00:45:01;;;;;;;1063.05;948.47;;;28.40;99.90;;;;;;5067499;28;20044;-64
2023/10/17 00:47:27;;;;;;;997.58;891.53;;;28.50;99.90;;;;;;5066373;28;20021;-64
2023/10/17 00:49:54;;;;;;;1046.22;933.40;;;28.50;99.90;;;;;;5064950;28;20027;-65
2023/10/17 00:52:32;;;;;;;1071.35;955.65;;;28.60;99.90;;;;;;5065386;28;20127;-64
2023/10/17 00:54:59;;;;;;;979.85;873.92;;;28.70;99.90;;;;;;5064407;28;20025;-64
2023/10/17 00:57:26;;;;;;;1058.03;944.28;;;28.80;99.90;;;;;;5065716;28;20100;-66
2023/10/17 01:00:15;;;;;;;1039.43;927.58;;;28.90;99.90;;;;;;5064824;28;20037;-65
2023/10/17 01:02:47;;;;;;;1036.60;927.45;;;28.90;99.90;;;;;;5067789;28;20073;-64
2023/10/17 01:05:15;;;;;;;1056.47;944.97;;;29.00;99.90;;;;;;5064790;28;20104;-66
2023/10/17 01:07:41;;;;;;;1055.50;945.33;;;29.10;99.90;;;;;;5072451;28;20502;-66
2023/10/17 01:10:17;;;;;;;1112.82;996.53;;;29.10;99.90;;;;;;5076204;28;20043;-65
2023/10/17 01:12:56;;;;;;;1092.55;979.80;;;29.10;99.90;;;;;;5067717;28;20032;-66
2023/10/17 01:15:28;;;;;;;1075.00;962.30;;;29.20;99.90;;;;;;5056358;28;20063;-65
2023/10/17 01:17:57;;;;;;;1093.13;980.00;;;29.30;99.90;;;;;;5063200;28;20086;-65
2023/10/17 01:20:24;;;;;;;1144.50;999.90;;;29.50;99.90;;;;;;5059661;28;20055;-65
2023/10/17 01:22:55;;;;;;;1146.97;999.90;;;29.60;99.90;;;;;;5056162;28;20521;-65
2023/10/17 01:25:26;;;;;;;1137.43;999.90;;;29.60;99.90;;;;;;5066283;28;20032;-63
2023/10/17 01:28:00;;;;;;;1141.53;999.90;;;29.70;99.90;;;;;;5065172;28;20086;-64
2023/10/17 01:30:29;;;;;;;1134.95;999.90;;;29.80;99.90;;;;;;5066080;28;20035;-64
2023/10/17 01:32:59;;;;;;;1127.45;999.90;;;29.90;99.90;;;;;;5065561;28;20029;-64
2023/10/17 01:35:26;;;;;;;1078.78;971.13;;;29.90;99.90;;;;;;5065965;28;20082;-64
2023/10/17 01:37:55;;;;;;;990.08;890.75;;;29.80;99.90;;;;;;5065646;28;20025;-64
2023/10/17 01:40:27;;;;;;;1093.65;983.42;;;29.90;99.90;;;;;;5063394;28;20025;-65
2023/10/17 01:42:58;;;;;;;998.13;898.38;;;30.00;99.90;;;;;;5064097;28;20033;-65
2023/10/17 01:45:29;;;;;;;1095.25;985.17;;;30.00;99.90;;;;;;5066090;28;20021;-65
2023/10/17 01:47:58;;;;;;;1060.68;954.58;;;30.10;99.90;;;;;;5055678;28;20039;-65
2023/10/17 01:50:24;;;;;;;1042.15;938.33;;;30.30;99.90;;;;;;5055351;28;20371;-65
2023/10/17 01:52:54;;;;;;;1069.20;962.88;;;30.40;99.90;;;;;;5063586;28;20069;-66
2023/10/17 01:55:27;;;;;;;1075.65;969.08;;;30.40;99.90;;;;;;5057928;28;20541;-65
2023/10/17 01:57:57;;;;;;;1042.93;940.58;;;30.40;99.90;;;;;;5055215;28;20036;-65
2023/10/17 02:00:39;;;;;;;963.65;869.20;;;30.50;99.90;;;;;;5054900;28;20053;-65
2023/10/17 02:03:12;;;;;;;;;;;30.60;99.90;;;;;;5055654;28;20025;-66
2023/10/17 02:05:39;;;;;;;935.85;843.63;;;30.70;99.90;;;;;;5054948;28;19904;-64
2023/10/17 02:08:06;;;;;;;901.58;812.47;;;30.70;99.90;;;;;;5054973;28;20033;-64
2023/10/17 02:10:33;;;;;;;961.22;866.40;;;30.80;99.90;;;;;;5055246;28;20155;-65
2023/10/17 02:13:00;;;;;;;1035.35;931.45;;;30.90;99.90;;;;;;5054991;28;20100;-65
2023/10/17 02:15:26;;;;;;;1040.60;936.22;;;31.00;99.90;;;;;;5054984;28;20029;-65
2023/10/17 02:17:57;;;;;;;960.42;864.25;;;31.00;99.90;;;;;;5055120;28;20021;-65
2023/10/17 02:23:01;;;;;;;805.00;724.67;;;31.10;99.90;;;;;;5055045;28;20021;-65
2023/10/17 02:25:35;;;;;;;805.03;723.50;;;31.20;99.90;;;;;;5054921;28;20052;-65
2023/10/17 02:28:02;;;;;;;777.35;698.95;;;31.20;99.90;;;;;;5054627;28;20390;-70
2023/10/17 02:30:29;;;;;;;737.55;661.90;;;31.20;99.90;;;;;;5054721;28;20025;-67
2023/10/17 02:32:56;;;;;;;693.95;621.33;;;31.20;99.90;;;;;;5054610;28;20505;-65
2023/10/17 02:38:16;;;;;;;786.00;705.92;;;31.30;99.90;;;;;;5038347;28;20044;-65
2023/10/17 02:40:54;;;;;;;753.20;676.13;;;31.30;99.90;;;;;;5054463;28;20025;-66
2023/10/17 02:43:20;;;;;;;722.25;647.97;;;31.20;99.90;;;;;;5054395;28;20037;-66
2023/10/17 02:45:47;;;;;;;582.92;521.42;;;31.20;99.90;;;;;;5054221;28;20475;-65
2023/10/17 02:48:26;;;;;;;636.90;569.83;;;31.30;99.90;;;;;;5054332;28;20467;-65
2023/10/17 02:50:58;;;;;;;751.38;674.30;;;31.40;99.90;;;;;;5054349;28;20033;-65
2023/10/17 02:53:26;;;;;;;690.03;619.42;;;31.40;99.90;;;;;;5053967;28;20100;-65
2023/10/17 02:55:53;;;;;;;669.70;600.33;;;31.60;99.90;;;;;;5054469;28;20045;-65
2023/10/17 02:58:20;;;;;;;703.45;632.08;;;31.70;99.90;;;;;;5054612;28;20387;-66
2023/10/17 03:00:48;;;;;;;671.83;603.42;;;31.70;99.90;;;;;;5054396;28;20071;-65
2023/10/17 03:03:18;;;;;;;653.65;586.63;;;31.90;99.90;;;;;;5054272;28;20035;-64
2023/10/17 03:05:50;;;;;;;648.05;580.58;;;31.90;99.90;;;;;;5054018;28;20033;-65
2023/10/17 03:08:17;;;;;;;655.90;588.75;;;32.00;99.90;;;;;;5054180;28;20032;-66
2023/10/17 03:10:44;;;;;;;658.17;590.70;;;32.10;99.90;;;;;;5054172;28;20067;-66
2023/10/17 03:15:57;;;;;;;628.30;562.88;;;32.20;99.90;;;;;;5054149;28;20025;-69
2023/10/17 03:18:24;;;;;;;634.53;568.10;;;32.30;99.90;;;;;;5053776;28;20029;-66
2023/10/17 03:20:50;;;;;;;631.60;565.10;;;32.40;99.90;;;;;;5054097;28;20052;-64
2023/10/17 03:23:29;;;;;;;645.28;577.85;;;32.50;99.90;;;;;;5054317;28;20079;-64
2023/10/17 03:26:02;;;;;;;643.50;576.40;;;32.60;99.90;;;;;;5054259;28;20092;-64
2023/10/17 03:28:36;;;;;;;642.35;575.17;;;32.60;99.90;;;;;;5054451;28;20036;-64
2023/10/17 03:31:10;;;;;;;638.67;571.22;;;32.60;99.90;;;;;;5053774;28;20438;-64
2023/10/17 03:33:40;;;;;;;682.17;611.33;;;32.60;99.90;;;;;;5053894;28;20025;-66
2023/10/17 03:36:34;;;;;;;673.17;603.80;;;32.60;99.90;;;;;;5053542;28;20025;-66
2023/10/17 03:38:53;;;;;;;541.30;483.60;;;32.70;99.90;;;;;;5053472;28;20035;-65
2023/10/17 03:41:24;;;;;;;439.08;390.70;;;32.70;99.90;;;;;;5053266;28;20029;-64
2023/10/17 03:43:53;;;;;;;443.05;395.08;;;32.80;99.90;;;;;;5053498;28;20040;-66
2023/10/17 03:46:25;;;;;;;421.80;376.48;;;32.90;99.90;;;;;;5053785;28;20105;-65
2023/10/17 03:49:00;;;;;;;458.67;409.58;;;33.00;99.90;;;;;;5054592;28;20020;-68
2023/10/17 03:51:27;;;;;;;484.80;433.95;;;33.10;99.90;;;;;;5061865;28;20542;-68
2023/10/17 03:53:54;;;;;;;464.77;415.13;;;33.10;99.90;;;;;;5063285;28;20025;-68
2023/10/17 03:56:24;;;;;;;430.63;383.83;;;33.20;99.90;;;;;;5063617;28;20047;-69
2023/10/17 03:59:18;;;;;;;418.77;366.85;;;33.30;99.90;;;;;;5066116;28;20401;-68
2023/10/17 04:01:48;;;;;;;417.58;373.45;;;33.40;99.90;;;;;;5066345;28;20067;-70
2023/10/17 04:04:25;;;;;;;428.17;381.40;;;33.40;99.90;;;;;;5071981;28;20086;-72
2023/10/17 04:06:51;;;;;;;451.50;402.80;;;33.40;99.90;;;;;;5066801;28;20439;-70
2023/10/17 04:09:29;;;;;;;453.05;403.50;;;33.30;99.90;;;;;;5065764;28;20036;-71
2023/10/17 04:11:58;;;;;;;439.33;391.23;;;33.30;99.90;;;;;;5072771;28;20016;-71
2023/10/17 04:14:34;;;;;;;514.72;460.55;;;33.40;99.90;;;;;;5060176;28;20082;-71
2023/10/17 04:17:04;;;;;;;436.08;388.85;;;33.50;99.90;;;;;;5052741;28;20029;-71
2023/10/17 04:19:39;;;;;;;498.02;444.40;;;33.60;99.90;;;;;;5052686;28;20033;-71
2023/10/17 04:22:08;;;;;;;561.85;503.45;;;33.60;99.90;;;;;;5052771;28;20104;-70
2023/10/17 04:24:35;;;;;;;565.78;506.92;;;33.70;99.90;;;;;;5052671;28;20032;-71
2023/10/17 04:29:50;;;;;;;460.30;410.70;;;33.60;99.90;;;;;;5052826;28;20032;-71
2023/10/17 04:32:19;;;;;;;445.23;395.98;;;33.50;99.90;;;;;;5053053;28;20428;-70
2023/10/17 04:34:46;;;;;;;456.65;407.15;;;33.60;99.90;;;;;;5053036;28;20417;-70
2023/10/17 04:40:28;;;;;;;408.83;364.42;;;33.80;99.90;;;;;;5030316;28;20112;-70
2023/10/17 04:45:23;;;;;;;491.45;437.38;;;34.00;99.10;;;;;;5053311;28;20025;-68
2023/10/17 04:48:11;;;;;;;742.08;666.60;;;34.00;98.80;;;;;;5052770;28;20061;-72
2023/10/17 04:50:45;;;;;;;756.85;679.90;;;34.00;99.20;;;;;;5053482;28;20029;-67
2023/10/17 04:53:27;;;;;;;735.25;659.95;;;34.00;99.40;;;;;;5052910;28;20021;-70
2023/10/17 04:59:02;;;;;;;732.17;656.10;;;34.20;99.00;;;;;;5043566;28;20449;-68
2023/10/17 05:03:55;;;;;;;688.03;618.78;;;34.20;98.50;;;;;;5052637;28;20084;-68
2023/10/17 05:06:40;;;;;;;682.75;613.13;;;34.20;97.90;;;;;;5052643;28;20107;-67
2023/10/17 06:17:42;;;;;;;801.58;724.50;;;35.10;91.50;;;;;;5045119;28;20047;-66
2023/10/17 06:20:12;;;;;;;842.83;761.60;;;35.20;90.00;;;;;;5043943;28;20029;-63
2023/10/17 06:30:48;;;;;;;809.47;731.30;;;35.30;87.10;;;;;;5043589;28;20037;-63
2023/10/17 06:33:19;;;;;;;815.22;736.17;;;35.30;87.50;;;;;;5041886;28;20021;-63
2023/10/17 06:35:52;;;;;;;711.35;641.78;;;35.40;87.80;;;;;;5044238;28;20056;-63
2023/10/17 06:38:27;;;;;;;673.08;606.63;;;35.60;86.30;;;;;;5043718;28;20081;-67
2023/10/17 06:41:11;;;;;;;683.10;615.70;;;35.60;84.00;;;;;;5043990;28;20033;-66
2023/10/17 06:43:39;;;;;;;755.55;682.03;;;35.60;84.60;;;;;;5044183;28;20021;-64
2023/10/17 06:46:12;;;;;;;762.53;688.63;;;35.60;83.80;;;;;;5043305;28;20429;-64
2023/10/17 06:48:49;;;;;;;767.13;692.67;;;35.70;83.50;;;;;;5043681;28;20063;-63
2023/10/17 06:53:51;;;;;;;741.42;669.60;;;35.70;83.00;;;;;;5045172;28;20017;-64
2023/10/17 06:56:18;;;;;;;758.35;684.05;;;35.70;83.20;;;;;;5044841;28;20478;-63
2023/10/17 06:58:45;;;;;;;778.55;702.17;;;35.80;83.00;;;;;;5043489;28;20061;-63
2023/10/17 07:01:26;;;;;;;802.35;723.92;;;35.80;82.50;;;;;;5058443;28;20124;-64
2023/10/17 07:03:56;;;;;;;748.28;674.90;;;35.80;82.40;;;;;;5064971;28;20540;-64
2023/10/17 07:06:26;;;;;;;853.08;769.38;;;35.80;79.70;;;;;;5064688;28;20029;-64
2023/10/17 07:08:53;;;;;;;759.55;686.00;;;35.90;79.60;;;;;;5063879;28;20025;-65
2023/10/17 07:13:54;;;;;;;788.55;712.35;;;35.90;77.20;;;;;;5064306;28;20466;-63
2023/10/17 07:16:33;;;;;;;767.10;692.53;;;35.90;76.50;;;;;;5064390;28;20021;-64
2023/10/17 07:24:29;;;;;;;738.95;666.35;;;36.00;77.40;;;;;;5064434;28;20501;-63
2023/10/17 07:26:56;;;;;;;761.20;687.38;;;36.10;76.90;;;;;;5064446;28;20089;-63
2023/10/17 07:29:23;;;;;;;769.83;695.00;;;36.00;77.90;;;;;;5063190;28;20031;-63
2023/10/17 07:31:52;;;;;;;791.42;714.45;;;36.10;77.20;;;;;;5062465;28;20461;-62
2023/10/17 07:34:21;;;;;;;755.80;682.03;;;36.10;77.10;;;;;;5064308;28;20036;-63
2023/10/17 07:37:54;;;;;;;734.65;662.30;;;36.10;76.40;;;;;;5061515;28;20016;-64
2023/10/17 07:40:16;;;;;;;818.75;738.90;;;36.10;76.00;;;;;;5044351;28;20032;-62
2023/10/17 07:42:45;;;;;;;775.88;699.80;;;36.10;76.40;;;;;;5064363;28;20100;-63
2023/10/17 07:45:15;;;;;;;827.53;746.53;;;36.10;75.10;;;;;;5066377;28;20025;-63
2023/10/17 07:47:54;;;;;;;802.42;724.10;;;36.10;75.30;;;;;;5066476;28;20478;-64
2023/10/17 07:50:25;;;;;;;707.95;638.17;;;36.20;75.50;;;;;;5070877;28;20120;-64
2023/10/17 07:52:54;;;;;;;733.75;661.15;;;36.20;73.90;;;;;;5064651;28;20393;-63
2023/10/17 07:55:34;;;;;;;720.75;649.95;;;36.10;76.00;;;;;;5080014;28;20387;-64
2023/10/17 07:58:06;;;;;;;757.67;683.33;;;36.10;75.90;;;;;;5070081;28;20032;-64
2023/10/17 08:00:33;;;;;;;739.75;665.53;;;36.20;76.80;;;;;;5068880;28;20044;-63
2023/10/17 08:03:14;;;;;;;748.88;673.45;;;36.10;77.60;;;;;;5064272;28;20032;-66
2023/10/17 08:06:05;;;;;;;691.40;620.70;;;36.00;77.90;;;;;;5067527;28;20025;-66
2023/10/17 08:08:43;;;;;;;687.42;618.00;;;36.00;77.90;;;;;;5063044;28;20033;-63
2023/10/17 08:14:09;;;;;;;666.08;599.20;;;35.90;77.40;;;;;;5044929;28;20052;-64
2023/10/17 08:16:40;;;;;;;696.75;627.03;;;35.90;77.00;;;;;;5064476;28;20482;-63
2023/10/17 08:19:12;;;;;;;728.13;655.90;;;35.90;77.70;;;;;;5066672;28;20120;-64
2023/10/17 08:24:40;;;;;;;727.20;655.83;;;35.90;76.90;;;;;;5064637;28;20035;-63
2023/10/17 08:29:49;;;;;;;608.03;545.25;;;35.80;79.00;;;;;;5060164;28;20071;-63
2023/10/17 08:34:46;;;;;;;698.10;626.38;;;35.80;78.90;;;;;;5066882;28;20482;-63
2023/10/17 08:37:26;;;;;;;684.55;613.72;;;35.70;79.90;;;;;;5062136;28;20032;-63
2023/10/17 08:39:52;;;;;;;769.05;689.58;;;35.70;79.80;;;;;;5066070;28;20029;-63
2023/10/17 08:42:49;;;;;;;749.53;672.33;;;35.60;80.00;;;;;;5067428;28;20081;-64
2023/10/17 08:45:15;;;;;;;724.88;649.65;;;35.60;78.10;;;;;;5064534;28;20079;-63
2023/10/17 08:47:43;;;;;;;700.97;628.85;;;35.50;79.00;;;;;;5066100;28;20031;-63
2023/10/17 08:50:09;;;;;;;721.53;648.88;;;35.40;78.80;;;;;;5059650;28;20021;-63
2023/10/17 08:52:40;;;;;;;740.67;666.08;;;35.40;79.60;;;;;;5059900;28;20425;-63
2023/10/17 08:55:07;;;;;;;774.92;697.15;;;35.40;80.00;;;;;;5060345;28;20070;-65
2023/10/17 08:57:37;;;;;;;780.80;701.22;;;35.40;79.10;;;;;;5069779;28;20032;-63
2023/10/17 09:02:43;;;;;;;765.78;687.28;;;35.30;79.40;;;;;;5069376;28;20078;-64
2023/10/17 09:05:25;;;;;;;786.88;707.03;;;35.30;78.50;;;;;;5069777;28;20027;-64
2023/10/17 09:08:02;;;;;;;750.10;673.38;;;35.20;78.40;;;;;;5069578;28;20020;-64
2023/10/17 09:10:41;;;;;;;761.45;684.13;;;35.20;79.10;;;;;;5070680;28;20288;-64
2023/10/17 09:15:55;;;;;;;800.83;717.50;;;35.20;77.80;;;;;;5070254;28;20386;-64
2023/10/17 09:18:28;;;;;;;838.45;750.58;;;35.10;78.30;;;;;;5070132;28;20025;-64
2023/10/17 09:20:56;;;;;;;853.67;763.85;;;35.10;78.70;;;;;;5069206;28;20038;-64
2023/10/17 09:23:24;;;;;;;889.63;793.70;;;35.00;78.00;;;;;;5070375;28;20547;-65
2023/10/17 09:25:59;;;;;;;912.42;815.33;;;35.00;78.20;;;;;;5063954;28;20181;-65
2023/10/17 09:28:26;;;;;;;937.40;833.00;;;34.90;77.80;;;;;;5067188;28;20036;-65
2023/10/17 09:31:03;;;;;;;909.97;810.33;;;34.90;78.00;;;;;;5064985;28;20024;-66
2023/10/17 09:33:36;;;;;;;1053.60;858.08;;;34.80;77.70;;;;;;5065799;28;20025;-63
2023/10/17 09:36:05;;;;;;;974.03;840.83;;;34.80;79.00;;;;;;5061964;28;20443;-64
2023/10/17 09:38:41;;;;;;;971.20;851.50;;;34.80;78.20;;;;;;5076852;28;20440;-63
2023/10/17 09:41:08;;;;;;;1006.88;849.53;;;34.70;78.10;;;;;;5065290;28;20112;-63
2023/10/17 09:43:38;;;;;;;940.47;839.17;;;34.70;78.60;;;;;;5065263;28;20032;-64
2023/10/17 09:46:14;;;;;;;947.28;844.72;;;34.60;79.10;;;;;;5062047;28;20025;-64
2023/10/17 09:48:45;;;;;;;1029.57;860.55;;;34.60;78.70;;;;;;5073775;28;20072;-63
2023/10/17 09:51:20;;;;;;;954.55;851.53;;;34.60;79.00;;;;;;5074700;28;20020;-64
2023/10/17 09:53:53;;;;;;;975.55;870.22;;;34.60;79.00;;;;;;5074487;28;20078;-64
2023/10/17 09:56:28;;;;;;;992.80;869.15;;;34.50;79.00;;;;;;5074452;28;20029;-64
2023/10/17 09:59:05;;;;;;;1000.28;891.35;;;34.50;79.70;;;;;;5074468;28;20024;-64
2023/10/17 10:01:34;;;;;;;1076.20;931.60;;;34.40;80.50;;;;;;5071383;28;20049;-63
2023/10/17 10:04:02;;;;;;;1013.63;901.25;;;34.40;80.70;;;;;;5065600;28;20079;-62
2023/10/17 10:06:33;;;;;;;1004.10;885.42;;;34.40;80.00;;;;;;5064178;28;20045;-62
2023/10/17 10:09:26;;;;;;;862.70;769.53;;;34.30;80.00;;;;;;5063101;28;20421;-62
2023/10/17 10:11:55;;;;;;;882.72;784.33;;;34.20;80.50;;;;;;5064563;28;20041;-61
2023/10/17 10:14:27;;;;;;;870.30;776.58;;;34.20;80.80;;;;;;5061440;28;20024;-61
2023/10/17 10:17:03;;;;;;;884.83;776.15;;;34.20;81.90;;;;;;5058615;28;20115;-63
2023/10/17 10:19:42;;;;;;;756.25;664.45;;;34.20;81.70;;;;;;5065249;28;20074;-61
2023/10/17 10:22:13;;;;;;;732.78;647.92;;;34.00;82.40;;;;;;5062585;28;20017;-64
2023/10/17 10:24:42;;;;;;;734.35;654.17;;;34.00;82.30;;;;;;5062787;28;20453;-64
2023/10/17 10:27:15;;;;;;;734.95;654.28;;;34.00;83.00;;;;;;5070643;28;20036;-64
2023/10/17 10:29:56;;;;;;;729.10;650.03;;;34.00;83.70;;;;;;5067639;28;20067;-63
2023/10/17 10:32:38;;;;;;;767.58;683.47;;;34.00;83.30;;;;;;5059188;28;20031;-63
2023/10/17 10:35:06;;;;;;;811.60;724.65;;;33.90;83.40;;;;;;5053497;28;20453;-63
2023/10/17 10:37:50;;;;;;;846.80;756.72;;;33.90;83.90;;;;;;5053011;28;20566;-63
2023/10/17 10:40:17;;;;;;;856.38;766.35;;;33.90;84.10;;;;;;5063882;28;20029;-60
2023/10/17 10:42:50;;;;;;;817.58;730.15;;;33.80;84.50;;;;;;5053517;28;20028;-60
2023/10/17 10:45:57;;;;;;;819.45;731.33;;;33.90;84.70;;;;;;5053502;28;20017;-60
2023/10/17 10:48:23;;;;;;;778.97;695.40;;;33.80;84.60;;;;;;5061159;28;20123;-64
2023/10/17 10:50:57;;;;;;;738.33;658.40;;;33.70;85.80;;;;;;5073092;28;20470;-64
2023/10/17 10:53:28;;;;;;;748.83;668.55;;;33.60;87.10;;;;;;5064914;28;20025;-64
2023/10/17 10:56:00;;;;;;;762.75;680.35;;;33.60;87.50;;;;;;5057122;28;20020;-64
2023/10/17 10:58:27;;;;;;;;;;;33.60;87.60;;;;;;5068458;28;20203;-60
2023/10/17 11:00:58;;;;;;;750.90;669.15;;;33.50;88.30;;;;;;5073866;28;19916;-61
2023/10/17 11:03:25;;;;;;;813.85;726.28;;;33.40;88.60;;;;;;5073938;28;20071;-62
2023/10/17 11:06:02;;;;;;;755.20;674.63;;;33.40;89.00;;;;;;5074032;28;20035;-62
2023/10/17 11:08:36;;;;;;;814.17;727.20;;;33.40;89.40;;;;;;5073836;28;20466;-63
2023/10/17 11:11:03;;;;;;;754.13;673.13;;;33.40;89.70;;;;;;5073940;28;20366;-64
2023/10/17 11:13:44;;;;;;;748.38;667.40;;;33.40;89.70;;;;;;5071646;28;20070;-61
2023/10/17 11:16:12;;;;;;;767.80;686.00;;;33.30;90.00;;;;;;5073140;28;20052;-63
2023/10/17 11:18:43;;;;;;;897.85;803.38;;;33.30;90.10;;;;;;5074027;28;20067;-62
2023/10/17 11:21:10;;;;;;;925.15;827.47;;;33.30;90.40;;;;;;5074015;28;20042;-63
2023/10/17 11:23:46;;;;;;;909.70;812.15;;;33.30;90.70;;;;;;5073715;28;20024;-62
2023/10/17 11:26:14;;;;;;;925.28;827.20;;;33.30;90.90;;;;;;5073768;28;20025;-63
2023/10/17 11:28:46;;;;;;;894.83;799.17;;;33.30;91.10;;;;;;5073351;28;20028;-63
2023/10/17 11:31:25;;;;;;;870.95;778.38;;;33.20;91.20;;;;;;5073532;28;20082;-63
2023/10/17 11:34:04;;;;;;;901.97;804.70;;;33.20;91.30;;;;;;5071711;28;20453;-64
2023/10/17 11:37:02;;;;;;;885.55;789.40;;;33.10;91.70;;;;;;5066142;28;20575;-63
2023/10/17 11:39:39;;;;;;;816.55;727.90;;;33.10;92.20;;;;;;5055662;28;20051;-63
2023/10/17 11:42:06;;;;;;;867.03;772.45;;;33.10;92.20;;;;;;5065371;28;20032;-63
2023/10/17 11:44:39;;;;;;;830.03;738.75;;;33.00;92.10;;;;;;5066470;28;20386;-63
2023/10/17 11:47:26;;;;;;;799.08;706.72;;;33.00;92.40;;;;;;5064196;28;20029;-64
2023/10/17 11:49:54;;;;;;;850.20;756.35;;;33.00;92.60;;;;;;5059280;28;20391;-63
2023/10/17 11:52:22;;;;;;;864.45;770.13;;;32.80;92.60;;;;;;5054779;28;20071;-63
2023/10/17 11:55:00;;;;;;;840.85;749.25;;;32.90;92.80;;;;;;5066296;28;20025;-63
2023/10/17 11:57:28;;;;;;;822.25;733.05;;;32.80;93.00;;;;;;5055533;28;20020;-62
2023/10/17 11:59:56;;;;;;;769.20;685.22;;;32.80;93.00;;;;;;5070828;28;20390;-62
2023/10/17 12:02:23;;;;;;;751.28;668.35;;;32.70;93.20;;;;;;5055195;28;20032;-64
2023/10/17 12:04:50;;;;;;;751.53;669.33;;;32.80;93.30;;;;;;5073350;28;20390;-64
2023/10/17 12:07:19;;;;;;;748.33;665.17;;;32.70;93.30;;;;;;5073625;28;20502;-63
2023/10/17 12:09:46;;;;;;;721.63;641.92;;;32.60;93.40;;;;;;5068128;28;20429;-62
2023/10/17 12:12:12;;;;;;;734.92;654.30;;;32.60;93.70;;;;;;5074430;28;20027;-64
2023/10/17 12:14:39;;;;;;;731.95;651.60;;;32.50;94.00;;;;;;5093478;28;20482;-62
2023/10/17 12:17:08;;;;;;;736.78;653.45;;;32.50;94.20;;;;;;5093411;28;20446;-63
2023/10/17 12:19:34;;;;;;;746.28;664.80;;;32.50;94.20;;;;;;5086786;28;20082;-63
2023/10/17 12:22:01;;;;;;;731.80;649.42;;;32.50;94.40;;;;;;5061848;28;20119;-62
2023/10/17 12:24:36;;;;;;;724.50;644.28;;;32.50;94.70;;;;;;5055589;28;20032;-62
2023/10/17 12:27:06;;;;;;;755.90;672.05;;;32.40;94.90;;;;;;5068498;28;20386;-63
2023/10/17 12:29:34;;;;;;;691.05;612.83;;;32.40;94.70;;;;;;5077058;28;20078;-63
2023/10/17 12:32:01;;;;;;;684.30;598.22;;;32.30;95.00;;;;;;5077038;28;20486;-67
2023/10/17 12:34:29;;;;;;;674.67;585.97;;;32.30;95.10;;;;;;5077704;28;20033;-64
2023/10/17 12:36:55;;;;;;;681.78;590.03;;;32.30;95.30;;;;;;5074096;28;20386;-62
2023/10/17 12:39:22;;;;;;;670.30;589.42;;;32.20;95.40;;;;;;5073368;28;20092;-64
2023/10/17 12:41:50;;;;;;;698.40;612.92;;;32.20;95.70;;;;;;5068005;28;20424;-63
2023/10/17 12:44:20;;;;;;;676.35;599.47;;;32.20;95.50;;;;;;5063936;28;20032;-63
2023/10/17 12:46:47;;;;;;;698.15;606.05;;;32.10;95.80;;;;;;5065584;28;20494;-63
2023/10/17 12:49:14;;;;;;;688.10;605.85;;;32.10;96.20;;;;;;5066743;28;20024;-62
2023/10/17 12:51:43;;;;;;;707.92;617.42;;;32.10;96.20;;;;;;5065893;28;20021;-64
2023/10/17 12:54:10;;;;;;;753.38;668.45;;;32.00;96.70;;;;;;5070865;28;20047;-63
2023/10/17 12:56:37;;;;;;;767.85;681.72;;;32.00;96.70;;;;;;5066445;28;20119;-63
2023/10/17 12:59:04;;;;;;;767.60;682.38;;;31.90;96.70;;;;;;5065166;28;20025;-63
2023/10/17 13:01:32;;;;;;;764.65;674.50;;;31.90;96.90;;;;;;5065249;28;20084;-63
2023/10/17 13:03:58;;;;;;;761.30;670.35;;;31.90;97.10;;;;;;5076430;28;20033;-63
2023/10/17 13:06:26;;;;;;;746.20;663.53;;;31.90;97.10;;;;;;5074244;28;20024;-62
2023/10/17 13:08:56;;;;;;;769.33;681.45;;;31.90;97.20;;;;;;5063665;28;20486;-63
2023/10/17 13:11:24;;;;;;;759.35;671.20;;;31.90;97.20;;;;;;5061294;28;20116;-63
2023/10/17 13:13:51;;;;;;;777.13;690.72;;;31.80;97.00;;;;;;5056305;28;20025;-65
2023/10/17 13:16:20;;;;;;;789.92;697.28;;;31.80;97.50;;;;;;5056584;28;20059;-63
2023/10/17 13:18:50;;;;;;;767.38;677.17;;;31.70;97.70;;;;;;5056119;28;20021;-63
2023/10/17 13:21:20;;;;;;;788.92;701.38;;;31.70;97.70;;;;;;5066691;28;20032;-65
2023/10/17 13:23:47;;;;;;;771.83;679.63;;;31.60;97.80;;;;;;5076040;28;20389;-63
2023/10/17 13:26:15;;;;;;;783.97;697.80;;;31.50;98.30;;;;;;5061678;28;20028;-65
2023/10/17 13:28:42;;;;;;;782.28;685.63;;;31.50;98.30;;;;;;5056936;28;20266;-63
2023/10/17 13:31:14;;;;;;;783.95;697.20;;;31.50;98.20;;;;;;5066095;28;20049;-63
2023/10/17 13:33:49;;;;;;;775.13;684.92;;;31.50;98.50;;;;;;5056050;28;20424;-63
2023/10/17 13:36:20;;;;;;;763.92;678.03;;;31.50;98.20;;;;;;5068408;28;20029;-64
2023/10/17 13:38:46;;;;;;;755.97;670.95;;;31.50;98.10;;;;;;5060131;28;20510;-63
2023/10/17 13:41:15;;;;;;;778.53;693.10;;;31.50;98.50;;;;;;5069401;28;20047;-64
2023/10/17 13:43:47;;;;;;;755.75;672.20;;;31.50;98.60;;;;;;5069006;28;20088;-62
2023/10/17 13:46:18;;;;;;;744.13;659.78;;;31.40;98.90;;;;;;5075274;28;20088;-65
2023/10/17 13:48:51;;;;;;;771.15;686.42;;;31.40;98.90;;;;;;5075376;28;20025;-64
2023/10/17 13:51:19;;;;;;;765.28;681.03;;;31.40;98.70;;;;;;5072004;28;20028;-64
2023/10/17 13:53:46;;;;;;;745.50;662.90;;;31.40;98.90;;;;;;5064494;28;20497;-66
2023/10/17 13:56:20;;;;;;;760.53;676.08;;;31.40;99.30;;;;;;5055440;28;20031;-65
2023/10/17 13:58:49;;;;;;;725.10;645.40;;;31.40;99.10;;;;;;5055502;28;20100;-61
2023/10/17 14:01:41;;;;;;;717.88;639.13;;;31.30;99.40;;;;;;5057192;28;20059;-63
2023/10/17 14:04:03;;;;;;;725.88;645.83;;;31.30;99.30;;;;;;5064651;28;20036;-64
2023/10/17 14:06:38;;;;;;;745.25;663.38;;;31.30;99.30;;;;;;5067244;28;20060;-63
2023/10/17 14:09:22;;;;;;;710.03;631.40;;;31.20;99.40;;;;;;5065874;28;20033;-63
2023/10/17 14:11:53;;;;;;;714.95;637.00;;;31.20;99.50;;;;;;5066801;28;20043;-63
2023/10/17 14:14:21;;;;;;;688.33;613.35;;;31.20;99.70;;;;;;5066550;28;20021;-64
2023/10/17 14:16:50;;;;;;;714.63;636.72;;;31.30;99.80;;;;;;5064348;28;20025;-64
2023/10/17 14:19:44;;;;;;;687.88;613.05;;;31.30;99.80;;;;;;5065248;28;20048;-63
2023/10/17 14:27:25;;;;;;;684.53;610.10;;;31.20;99.90;;;;;;5064210;28;20094;-64
2023/10/17 14:29:54;;;;;;;693.55;617.75;;;31.10;99.90;;;;;;5069089;28;20085;-64
2023/10/17 14:32:23;;;;;;;691.33;616.17;;;31.10;99.90;;;;;;5075096;28;20102;-63
2023/10/17 14:34:50;;;;;;;682.08;607.97;;;31.10;99.90;;;;;;5074834;28;20028;-64
2023/10/17 14:37:23;;;;;;;699.15;624.17;;;31.10;99.90;;;;;;5074651;28;20021;-63
2023/10/17 14:39:52;;;;;;;686.88;611.88;;;31.00;99.90;;;;;;5074333;28;20579;-64
2023/10/17 14:42:20;;;;;;;692.83;618.65;;;31.00;99.90;;;;;;5074775;28;20028;-64
2023/10/17 14:44:49;;;;;;;670.25;597.15;;;31.00;99.90;;;;;;5074689;28;20424;-64